Time;durP1;ratioP1;P1;durP2;ratioP2;P2;SDS_P1;SDS_P2;PMS_P1;PMS_P2;Temp;Humidity;BMP_temperature;BMP_pressure;BME280_temperature;BME280_humidity;BME280_pressure;Samples;Min_cycle;Max_cycle;Signal;HPM_P1;HPM_P2
2024/02/09 00:00:29;;;;;;;0.82;0.60;;;;;;;;;;5026704;28;58412;-71
2024/02/09 00:02:54;;;;;;;1.17;0.57;;;;;;;;;;5025052;28;59744;-68
2024/02/09 00:05:19;;;;;;;1.00;0.70;;;;;;;;;;5026676;28;58648;-68
2024/02/09 00:07:45;;;;;;;1.65;0.60;;;;;;;;;;5026602;28;58653;-68
2024/02/09 00:10:12;;;;;;;1.25;0.70;;;;;;;;;;5026767;28;59515;-68
2024/02/09 00:12:39;;;;;;;1.05;0.73;;;;;;;;;;5026263;28;58421;-69
2024/02/09 00:15:06;;;;;;;1.80;1.07;;;;;;;;;;5025344;28;59502;-68
2024/02/09 00:17:32;;;;;;;4.47;1.33;;;;;;;;;;5023944;28;60369;-68
2024/02/09 00:19:58;;;;;;;1.38;0.77;;;;;;;;;;5023912;28;58373;-69
2024/02/09 00:22:23;;;;;;;1.87;0.90;;;;;;;;;;5028104;28;59833;-68
2024/02/09 00:24:48;;;;;;;0.93;0.50;;;;;;;;;;5026501;28;58653;-70
2024/02/09 00:27:13;;;;;;;1.88;0.50;;;;;;;;;;5025383;28;58487;-70
2024/02/09 00:29:38;;;;;;;0.47;0.47;;;;;;;;;;5025990;28;59063;-70
2024/02/09 00:32:04;;;;;;;1.30;0.93;;;;;;;;;;5026832;28;59004;-71
2024/02/09 00:34:29;;;;;;;0.68;0.68;;;;;;;;;;5027764;28;59523;-70
2024/02/09 00:36:55;;;;;;;1.05;0.60;;;;;;;;;;5022899;28;59896;-70
2024/02/09 00:39:20;;;;;;;0.70;0.70;;;;;;;;;;5027852;28;58427;-70
2024/02/09 00:41:47;;;;;;;1.02;0.65;;;;;;;;;;5025709;28;59251;-70
2024/02/09 00:44:12;;;;;;;0.55;0.55;;;;;;;;;;5024526;28;58390;-70
2024/02/09 00:46:42;;;;;;;1.67;0.83;;;;;;;;;;5010326;28;58555;-70
2024/02/09 00:49:07;;;;;;;2.13;0.77;;;;;;;;;;5024704;28;58795;-71
2024/02/09 00:51:32;;;;;;;0.60;0.50;;;;;;;;;;5022779;28;59016;-70
2024/02/09 00:53:57;;;;;;;0.60;0.50;;;;;;;;;;5025795;28;58400;-70
2024/02/09 00:56:23;;;;;;;1.00;0.90;;;;;;;;;;5024271;28;58534;-70
2024/02/09 00:58:49;;;;;;;0.70;0.70;;;;;;;;;;5026030;28;58409;-73
2024/02/09 01:01:14;;;;;;;1.58;1.30;;;;;;;;;;5025280;28;58957;-72
2024/02/09 01:03:39;;;;;;;0.75;0.75;;;;;;;;;;5025811;28;59763;-72
2024/02/09 01:06:04;;;;;;;0.95;0.70;;;;;;;;;;5024277;28;58372;-73
2024/02/09 01:08:31;;;;;;;0.77;0.57;;;;;;;;;;5025831;28;59641;-72
2024/02/09 01:10:57;;;;;;;0.87;0.67;;;;;;;;;;5021962;28;58847;-72
2024/02/09 02:46:13;;;;;;;0.40;0.40;;;;;;;;;;5024457;28;58480;-70
2024/02/09 03:05:01;;;;;;;0.75;0.50;;;;;;;;;;5021195;28;58924;-70
2024/02/09 03:07:26;;;;;;;1.30;0.60;;;;;;;;;;5023649;28;59645;-70
2024/02/09 03:09:51;;;;;;;0.93;0.47;;;;;;;;;;5023318;28;58540;-70
2024/02/09 03:12:17;;;;;;;0.37;0.37;;;;;;;;;;5022429;28;59807;-70
2024/02/09 03:14:44;;;;;;;0.52;0.50;;;;;;;;;;5025475;28;58908;-70
2024/02/09 03:17:09;;;;;;;0.93;0.80;;;;;;;;;;5027450;28;59532;-70
2024/02/09 03:19:35;;;;;;;0.93;0.50;;;;;;;;;;5027452;28;58745;-70
2024/02/09 03:22:00;;;;;;;0.20;0.20;;;;;;;;;;5025190;28;58404;-70
2024/02/09 03:24:26;;;;;;;2.07;0.37;;;;;;;;;;5023907;28;59455;-70
2024/02/09 03:26:51;;;;;;;0.80;0.37;;;;;;;;;;5023731;28;58991;-71
2024/02/09 03:29:16;;;;;;;0.50;0.50;;;;;;;;;;5026869;28;58588;-70
2024/02/09 03:31:42;;;;;;;0.40;0.40;;;;;;;;;;5027808;28;58388;-70
2024/02/09 03:34:07;;;;;;;0.80;0.60;;;;;;;;;;5022395;28;58963;-70
2024/02/09 03:36:34;;;;;;;0.60;0.30;;;;;;;;;;5026272;28;58348;-70
2024/02/09 03:39:01;;;;;;;0.63;0.35;;;;;;;;;;5024482;28;58874;-70
2024/02/09 03:41:26;;;;;;;1.08;0.77;;;;;;;;;;5024759;28;58416;-70
2024/02/09 03:43:51;;;;;;;0.83;0.67;;;;;;;;;;5025289;28;58482;-70
2024/02/09 03:46:17;;;;;;;0.40;0.40;;;;;;;;;;5026328;28;59015;-70
2024/02/09 03:48:42;;;;;;;0.43;0.32;;;;;;;;;;5024967;28;58380;-71
2024/02/09 03:51:07;;;;;;;0.40;0.33;;;;;;;;;;5005071;28;60894;-70
2024/02/09 03:53:33;;;;;;;0.50;0.37;;;;;;;;;;5023763;28;58640;-70
2024/02/09 03:55:58;;;;;;;0.30;0.30;;;;;;;;;;5023681;28;60465;-71
2024/02/09 03:58:24;;;;;;;0.77;0.60;;;;;;;;;;5025079;28;59315;-70
2024/02/09 04:00:49;;;;;;;0.50;0.50;;;;;;;;;;5026036;28;58577;-70
2024/02/09 04:03:15;;;;;;;0.37;0.37;;;;;;;;;;5024038;28;59403;-70
2024/02/09 04:05:40;;;;;;;0.40;0.30;;;;;;;;;;5024138;28;58883;-70
2024/02/09 04:08:05;;;;;;;0.70;0.70;;;;;;;;;;5025568;28;58453;-70
2024/02/09 04:10:31;;;;;;;0.77;0.73;;;;;;;;;;5025224;28;60462;-71
2024/02/09 04:12:58;;;;;;;0.67;0.67;;;;;;;;;;5026273;28;58922;-70
2024/02/09 04:15:24;;;;;;;0.57;0.57;;;;;;;;;;5023806;28;58376;-70
2024/02/09 04:17:51;;;;;;;1.08;0.55;;;;;;;;;;5025714;28;59527;-70
2024/02/09 04:20:17;;;;;;;0.57;0.57;;;;;;;;;;5026382;28;57992;-70
2024/02/09 04:22:42;;;;;;;0.97;0.60;;;;;;;;;;5028261;28;59347;-70
2024/02/09 04:25:07;;;;;;;0.77;0.67;;;;;;;;;;5024422;28;58847;-71
2024/02/09 04:27:32;;;;;;;1.25;0.40;;;;;;;;;;5026041;28;58388;-73
2024/02/09 04:29:57;;;;;;;0.90;0.65;;;;;;;;;;5027060;28;60534;-72
2024/02/09 04:32:23;;;;;;;0.75;0.50;;;;;;;;;;5006840;28;58661;-72
2024/02/09 04:34:50;;;;;;;0.63;0.55;;;;;;;;;;5026398;28;58392;-72
2024/02/09 04:37:15;;;;;;;2.25;0.40;;;;;;;;;;5026821;28;65282;-71
2024/02/09 04:39:41;;;;;;;2.03;0.50;;;;;;;;;;5026373;28;58482;-71
2024/02/09 04:42:06;;;;;;;0.50;0.50;;;;;;;;;;5024302;28;60159;-71
2024/02/09 04:44:33;;;;;;;0.30;0.30;;;;;;;;;;5024881;28;60597;-70
2024/02/09 04:46:58;;;;;;;0.57;0.50;;;;;;;;;;5026438;28;58302;-71
2024/02/09 04:49:24;;;;;;;1.27;0.40;;;;;;;;;;5026652;28;60080;-70
2024/02/09 04:51:50;;;;;;;0.50;0.50;;;;;;;;;;5024089;28;58982;-70
2024/02/09 04:54:15;;;;;;;0.35;0.35;;;;;;;;;;5024315;28;58441;-69
2024/02/09 04:56:40;;;;;;;0.90;0.50;;;;;;;;;;5025045;28;59479;-70
2024/02/09 04:59:09;;;;;;;2.47;0.50;;;;;;;;;;5024752;28;59810;-70
2024/02/09 05:01:37;;;;;;;1.35;0.57;;;;;;;;;;5025727;28;58369;-70
2024/02/09 05:04:02;;;;;;;0.40;0.38;;;;;;;;;;5025070;28;60889;-71
2024/02/09 05:06:29;;;;;;;0.30;0.28;;;;;;;;;;5024477;28;58382;-70
2024/02/09 05:08:54;;;;;;;2.90;0.93;;;;;;;;;;5025259;28;59352;-70
2024/02/09 05:11:22;;;;;;;0.43;0.40;;;;;;;;;;5023488;28;59394;-70
2024/02/09 05:13:48;;;;;;;;;;;;;;;;;;5025390;28;58526;-70
2024/02/09 05:16:13;;;;;;;0.60;0.60;;;;;;;;;;5025291;28;59357;-70
2024/02/09 05:18:38;;;;;;;0.63;0.53;;;;;;;;;;5023146;28;59026;-71
2024/02/09 05:21:04;;;;;;;0.53;0.53;;;;;;;;;;5025243;28;58419;-70
2024/02/09 05:23:29;;;;;;;0.60;0.53;;;;;;;;;;5022431;28;59360;-70
2024/02/09 05:25:54;;;;;;;0.52;0.52;;;;;;;;;;5024580;28;58322;-70
2024/02/09 05:28:20;;;;;;;1.30;0.70;;;;;;;;;;5007447;28;59192;-70
2024/02/09 05:30:45;;;;;;;0.43;0.30;;;;;;;;;;5022612;28;58589;-70
2024/02/09 05:33:10;;;;;;;2.07;0.47;;;;;;;;;;5024769;28;58380;-70
2024/02/09 05:35:37;;;;;;;0.40;0.40;;;;;;;;;;5021618;28;59376;-70
2024/02/09 05:38:03;;;;;;;0.85;0.68;;;;;;;;;;5023983;28;58477;-72
2024/02/09 05:40:29;;;;;;;1.38;0.77;;;;;;;;;;5024035;28;58446;-78
2024/02/09 05:42:54;;;;;;;2.40;0.70;;;;;;;;;;5024267;28;59162;-75
2024/02/09 05:45:19;;;;;;;8.13;2.42;;;;;;;;;;5022809;28;58480;-75
2024/02/09 05:47:44;;;;;;;2.78;1.20;;;;;;;;;;5025347;28;58568;-71
2024/02/09 05:50:09;;;;;;;4.18;1.38;;;;;;;;;;5022949;28;58672;-72
2024/02/09 05:52:34;;;;;;;4.53;1.50;;;;;;;;;;5024625;28;58705;-71
2024/02/09 05:54:59;;;;;;;2.95;0.70;;;;;;;;;;5024315;28;58415;-71
2024/02/09 05:57:25;;;;;;;3.63;1.30;;;;;;;;;;5022681;28;58935;-70
2024/02/09 05:59:50;;;;;;;6.95;1.48;;;;;;;;;;5022727;28;58407;-70
2024/02/09 06:02:17;;;;;;;3.63;1.73;;;;;;;;;;5021742;28;59838;-70
2024/02/09 06:04:42;;;;;;;1.10;1.00;;;;;;;;;;5021089;28;59138;-70
2024/02/09 06:07:07;;;;;;;1.87;0.90;;;;;;;;;;5023693;28;59460;-70
2024/02/09 06:09:34;;;;;;;1.45;1.05;;;;;;;;;;5021942;28;58669;-69
2024/02/09 06:12:00;;;;;;;4.35;1.05;;;;;;;;;;5022295;28;58574;-71
2024/02/09 06:14:25;;;;;;;3.67;0.95;;;;;;;;;;5023585;28;60281;-69
2024/02/09 06:16:51;;;;;;;2.80;1.38;;;;;;;;;;5023367;28;59855;-70
2024/02/09 06:19:16;;;;;;;1.87;1.37;;;;;;;;;;5025133;28;58460;-70
2024/02/09 06:21:41;;;;;;;3.13;1.30;;;;;;;;;;5025236;28;59437;-70
2024/02/09 06:24:06;;;;;;;2.97;0.65;;;;;;;;;;5025121;28;58398;-70
2024/02/09 06:26:31;;;;;;;2.40;0.87;;;;;;;;;;5025539;28;58392;-70
2024/02/09 06:28:56;;;;;;;2.25;1.00;;;;;;;;;;5023860;28;58888;-70
2024/02/09 06:31:25;;;;;;;1.00;0.80;;;;;;;;;;5026212;28;58430;-69
2024/02/09 06:33:52;;;;;;;5.95;1.88;;;;;;;;;;5023901;28;59322;-70
2024/02/09 06:36:18;;;;;;;1.48;0.90;;;;;;;;;;5024339;28;58995;-70
2024/02/09 06:38:43;;;;;;;7.10;1.48;;;;;;;;;;5025183;28;58428;-70
2024/02/09 06:41:11;;;;;;;4.50;1.30;;;;;;;;;;5024624;28;59295;-70
2024/02/09 06:43:36;;;;;;;;;;;;;;;;;;5023213;28;59040;-69
2024/02/09 06:46:01;;;;;;;3.78;1.75;;;;;;;;;;5023359;28;58681;-70
2024/02/09 06:48:28;;;;;;;2.27;1.27;;;;;;;;;;5021337;28;59753;-72
2024/02/09 06:50:53;;;;;;;3.83;1.30;;;;;;;;;;5022017;28;58465;-72
2024/02/09 06:53:22;;;;;;;1.67;1.10;;;;;;;;;;5021785;28;59008;-72
2024/02/09 06:55:50;;;;;;;2.35;1.38;;;;;;;;;;5024081;28;58482;-72
2024/02/09 06:58:15;;;;;;;;;;;;;;;;;;5025070;28;58375;-70
2024/02/09 07:00:41;;;;;;;5.43;1.27;;;;;;;;;;5026863;28;59575;-70
2024/02/09 07:03:06;;;;;;;3.60;1.08;;;;;;;;;;5023041;28;58847;-69
2024/02/09 07:05:34;;;;;;;1.73;0.97;;;;;;;;;;5006075;28;58409;-69
2024/02/09 07:07:59;;;;;;;3.42;2.15;;;;;;;;;;5023542;28;58460;-70
2024/02/09 07:10:24;;;;;;;4.03;1.40;;;;;;;;;;5025383;28;58662;-70
2024/02/09 07:12:51;;;;;;;7.88;2.33;;;;;;;;;;5023270;28;59131;-70
2024/02/09 07:15:17;;;;;;;1.77;1.20;;;;;;;;;;5023290;28;58456;-70
2024/02/09 07:17:43;;;;;;;3.88;1.30;;;;;;;;;;5022388;28;58448;-70
2024/02/09 07:20:10;;;;;;;3.85;2.08;;;;;;;;;;5025087;28;59430;-70
2024/02/09 07:22:35;;;;;;;1.40;0.70;;;;;;;;;;5023965;28;59364;-70
2024/02/09 07:25:01;;;;;;;4.70;1.30;;;;;;;;;;5024156;28;58431;-70
2024/02/09 07:27:26;;;;;;;4.53;1.13;;;;;;;;;;5023502;28;61615;-70
2024/02/09 07:29:51;;;;;;;1.67;1.33;;;;;;;;;;5022405;28;59741;-70
2024/02/09 07:32:16;;;;;;;3.28;1.58;;;;;;;;;;5024738;28;58408;-70
2024/02/09 07:34:41;;;;;;;3.10;1.20;;;;;;;;;;5024460;28;59749;-70
2024/02/09 07:37:06;;;;;;;1.55;1.08;;;;;;;;;;5023596;28;58447;-70
2024/02/09 07:39:34;;;;;;;3.27;1.37;;;;;;;;;;5023670;28;59765;-70
2024/02/09 07:42:00;;;;;;;2.08;0.80;;;;;;;;;;5021264;28;58413;-70
2024/02/09 07:44:25;;;;;;;1.48;1.15;;;;;;;;;;5022048;28;58412;-70
2024/02/09 07:46:53;;;;;;;1.42;0.93;;;;;;;;;;5023317;28;59485;-69
2024/02/09 07:49:20;;;;;;;2.38;1.38;;;;;;;;;;5021707;28;58868;-70
2024/02/09 07:51:45;;;;;;;2.55;1.00;;;;;;;;;;5024097;28;58425;-70
2024/02/09 07:54:11;;;;;;;3.35;1.52;;;;;;;;;;5022284;28;58781;-70
2024/02/09 07:56:36;;;;;;;1.83;1.00;;;;;;;;;;5023558;28;58656;-69
2024/02/09 07:59:01;;;;;;;1.13;0.85;;;;;;;;;;5024379;28;59222;-72
2024/02/09 08:01:26;;;;;;;1.90;1.27;;;;;;;;;;5028076;28;58854;-72
2024/02/09 08:03:56;;;;;;;3.63;1.57;;;;;;;;;;5028899;28;58535;-72
2024/02/09 08:06:21;;;;;;;2.40;1.33;;;;;;;;;;5010656;28;59586;-72
2024/02/09 08:08:52;;;;;;;2.55;1.88;;;;;;;;;;5024562;28;59713;-72
2024/02/09 08:11:21;;;;;;;3.38;1.20;;;;;;;;;;5025912;28;58434;-72
2024/02/09 08:13:48;;;;;;;1.55;1.02;;;;;;;;;;5026205;28;59449;-71
2024/02/09 08:16:13;;;;;;;2.55;1.48;;;;;;;;;;5026192;28;58388;-72
2024/02/09 08:18:38;;;;;;;1.75;1.17;;;;;;;;;;5025800;28;59191;-71
2024/02/09 08:21:03;;;;;;;3.03;1.77;;;;;;;;;;5022682;28;58504;-70
2024/02/09 08:23:29;;;;;;;1.93;1.10;;;;;;;;;;5026904;28;58392;-71
2024/02/09 08:25:54;;;;;;;2.67;1.17;;;;;;;;;;5024902;28;59420;-72
2024/02/09 08:28:19;;;;;;;2.33;1.42;;;;;;;;;;5026169;28;59660;-72
2024/02/09 08:30:45;;;;;;;1.35;1.00;;;;;;;;;;5026815;28;58363;-71
2024/02/09 08:33:10;;;;;;;2.90;2.27;;;;;;;;;;5027821;28;60053;-71
2024/02/09 08:35:36;;;;;;;1.48;1.00;;;;;;;;;;5026015;28;58859;-71
2024/02/09 08:38:01;;;;;;;2.35;1.08;;;;;;;;;;5028219;28;58609;-72
2024/02/09 08:40:26;;;;;;;1.75;1.23;;;;;;;;;;5027222;28;58844;-71
2024/02/09 08:42:51;;;;;;;1.73;0.87;;;;;;;;;;5026213;28;58606;-71
2024/02/09 08:45:16;;;;;;;0.77;0.77;;;;;;;;;;5024916;28;59490;-71
2024/02/09 08:47:41;;;;;;;2.43;0.90;;;;;;;;;;5024627;28;58649;-71
2024/02/09 08:50:07;;;;;;;3.73;1.30;;;;;;;;;;5026090;28;58310;-71
2024/02/09 08:52:32;;;;;;;0.80;0.80;;;;;;;;;;5026945;28;59611;-72
2024/02/09 08:54:57;;;;;;;2.15;0.90;;;;;;;;;;5024558;28;59912;-71
2024/02/09 08:57:22;;;;;;;1.15;1.00;;;;;;;;;;5025694;28;58372;-72
2024/02/09 08:59:47;;;;;;;1.80;1.17;;;;;;;;;;5023778;28;58695;-71
2024/02/09 09:02:12;;;;;;;1.92;1.20;;;;;;;;;;5026340;28;58302;-72
2024/02/09 09:04:38;;;;;;;1.53;1.00;;;;;;;;;;5025290;28;59486;-71
2024/02/09 09:07:03;;;;;;;2.40;0.83;;;;;;;;;;5024848;28;58579;-71
2024/02/09 09:09:28;;;;;;;1.77;1.40;;;;;;;;;;5025561;28;58477;-72
2024/02/09 09:11:56;;;;;;;1.43;1.03;;;;;;;;;;5024823;28;59424;-72
2024/02/09 09:14:21;;;;;;;;;;;;;;;;;;5025342;28;58578;-72
2024/02/09 09:16:47;;;;;;;2.03;1.20;;;;;;;;;;5026182;28;58455;-72
2024/02/09 09:19:14;;;;;;;1.43;1.10;;;;;;;;;;5024743;28;59391;-71
2024/02/09 09:21:41;;;;;;;0.93;0.70;;;;;;;;;;5026332;28;58329;-72
2024/02/09 09:24:07;;;;;;;1.38;0.90;;;;;;;;;;5023828;28;60323;-72
2024/02/09 09:26:32;;;;;;;1.05;0.70;;;;;;;;;;5023234;28;59067;-71
2024/02/09 09:28:57;;;;;;;0.97;0.77;;;;;;;;;;5026990;28;58391;-72
2024/02/09 09:31:23;;;;;;;1.65;1.20;;;;;;;;;;5025038;28;58330;-72
2024/02/09 09:33:48;;;;;;;1.60;1.48;;;;;;;;;;5024257;28;59192;-72
2024/02/09 09:36:14;;;;;;;1.40;0.40;;;;;;;;;;5025623;28;58348;-71
2024/02/09 09:38:39;;;;;;;3.05;1.20;;;;;;;;;;5024557;28;58479;-72
2024/02/09 09:41:04;;;;;;;2.03;0.87;;;;;;;;;;5026057;28;58659;-71
2024/02/09 09:43:30;;;;;;;1.00;0.93;;;;;;;;;;5025545;28;58450;-71
2024/02/09 09:45:58;;;;;;;1.20;0.63;;;;;;;;;;5024544;28;59022;-72
2024/02/09 09:48:24;;;;;;;1.88;0.90;;;;;;;;;;5024711;28;58579;-71
2024/02/09 09:50:53;;;;;;;3.10;1.20;;;;;;;;;;5023982;28;59549;-72
2024/02/09 09:53:20;;;;;;;1.65;1.27;;;;;;;;;;5023981;28;58415;-71
2024/02/09 09:55:46;;;;;;;1.02;0.93;;;;;;;;;;5026802;28;58549;-71
2024/02/09 09:58:12;;;;;;;2.03;0.95;;;;;;;;;;5023287;28;59471;-71
2024/02/09 10:00:39;;;;;;;0.93;0.77;;;;;;;;;;5025444;28;58456;-71
2024/02/09 10:03:05;;;;;;;2.22;1.15;;;;;;;;;;5023984;28;58416;-71
2024/02/09 10:05:30;;;;;;;1.50;1.08;;;;;;;;;;5024893;28;58449;-71
2024/02/09 10:07:57;;;;;;;1.00;0.80;;;;;;;;;;5025902;28;58419;-71
2024/02/09 10:10:23;;;;;;;1.92;1.23;;;;;;;;;;5024534;28;58464;-71
2024/02/09 10:12:48;;;;;;;1.75;0.93;;;;;;;;;;5023102;28;59081;-71
2024/02/09 10:15:16;;;;;;;0.95;0.90;;;;;;;;;;5023241;28;58435;-72
2024/02/09 10:17:41;;;;;;;2.13;1.48;;;;;;;;;;5023973;28;59406;-69
2024/02/09 10:20:09;;;;;;;1.43;1.00;;;;;;;;;;5022798;28;59090;-69
2024/02/09 10:22:36;;;;;;;;;;;;;;;;;;5025146;28;58483;-69
2024/02/09 10:25:02;;;;;;;2.42;1.08;;;;;;;;;;5022291;28;59145;-69
2024/02/09 10:27:28;;;;;;;1.95;0.73;;;;;;;;;;5024871;28;58442;-71
2024/02/09 10:29:53;;;;;;;0.90;0.60;;;;;;;;;;5026012;28;58583;-71
2024/02/09 10:32:19;;;;;;;1.23;1.10;;;;;;;;;;5023842;28;58878;-71
2024/02/09 10:34:45;;;;;;;3.47;0.70;;;;;;;;;;5024965;28;58574;-71
2024/02/09 10:37:11;;;;;;;1.83;0.88;;;;;;;;;;5023004;28;59526;-72
2024/02/09 10:39:36;;;;;;;1.60;0.98;;;;;;;;;;5025301;28;58466;-71
2024/02/09 10:42:04;;;;;;;1.43;0.53;;;;;;;;;;5023719;28;58420;-71
2024/02/09 10:44:32;;;;;;;1.27;1.00;;;;;;;;;;5023276;28;59417;-71
2024/02/09 10:46:58;;;;;;;1.98;0.70;;;;;;;;;;5023389;28;58352;-71
2024/02/09 10:49:24;;;;;;;0.73;0.50;;;;;;;;;;5025146;28;59583;-71
2024/02/09 10:51:50;;;;;;;0.70;0.70;;;;;;;;;;5024617;28;58479;-71
2024/02/09 10:54:18;;;;;;;1.73;1.02;;;;;;;;;;5023842;28;58482;-71
2024/02/09 10:56:43;;;;;;;;;;;;;;;;;;5024043;28;59464;-71
2024/02/09 10:59:09;;;;;;;1.23;0.85;;;;;;;;;;5021172;28;58394;-71
2024/02/09 11:01:36;;;;;;;0.70;0.70;;;;;;;;;;5025259;28;58436;-71
2024/02/09 11:04:01;;;;;;;1.08;0.85;;;;;;;;;;5024669;28;59339;-71
2024/02/09 11:06:26;;;;;;;1.43;1.00;;;;;;;;;;5024073;28;59482;-71
2024/02/09 11:08:52;;;;;;;1.00;0.80;;;;;;;;;;5021763;28;58594;-71
2024/02/09 11:11:17;;;;;;;1.08;0.70;;;;;;;;;;5022271;28;58435;-71
2024/02/09 11:13:43;;;;;;;2.13;1.07;;;;;;;;;;5025166;28;58575;-71
2024/02/09 11:16:08;;;;;;;0.70;0.55;;;;;;;;;;5004819;28;61281;-71
2024/02/09 11:18:36;;;;;;;0.73;0.70;;;;;;;;;;5023023;28;58919;-71
2024/02/09 11:21:06;;;;;;;1.30;0.85;;;;;;;;;;5022999;28;58337;-71
2024/02/09 11:23:32;;;;;;;1.23;0.70;;;;;;;;;;5024032;28;58490;-71
2024/02/09 11:25:58;;;;;;;2.80;1.02;;;;;;;;;;5023645;28;58996;-71
2024/02/09 11:28:24;;;;;;;2.35;1.17;;;;;;;;;;5024438;28;58371;-69
2024/02/09 11:30:54;;;;;;;1.63;1.00;;;;;;;;;;5022138;28;58523;-69
2024/02/09 11:33:19;;;;;;;2.67;0.73;;;;;;;;;;5022557;28;58540;-69
2024/02/09 11:35:48;;;;;;;0.93;0.60;;;;;;;;;;5027121;28;59404;-69
2024/02/09 11:38:13;;;;;;;0.90;0.52;;;;;;;;;;5026952;28;59849;-69
2024/02/09 11:40:39;;;;;;;0.97;0.70;;;;;;;;;;5028188;28;58410;-69
2024/02/09 11:43:05;;;;;;;1.58;0.98;;;;;;;;;;5026336;28;58454;-69
2024/02/09 11:45:30;;;;;;;1.33;1.00;;;;;;;;;;5010087;28;58788;-68
2024/02/09 11:47:56;;;;;;;0.70;0.70;;;;;;;;;;5029555;28;58483;-69
2024/02/09 11:50:22;;;;;;;2.60;0.90;;;;;;;;;;5026520;28;59288;-69
2024/02/09 11:52:48;;;;;;;1.00;0.50;;;;;;;;;;5028296;28;58679;-69
2024/02/09 11:55:13;;;;;;;1.05;0.65;;;;;;;;;;5026249;28;58539;-69
2024/02/09 11:57:39;;;;;;;1.42;0.80;;;;;;;;;;5024719;28;60095;-69
2024/02/09 12:00:05;;;;;;;1.02;0.57;;;;;;;;;;5024823;28;58425;-70
2024/02/09 12:02:31;;;;;;;0.60;0.60;;;;;;;;;;5025802;28;58826;-69
2024/02/09 12:04:56;;;;;;;1.48;0.60;;;;;;;;;;5026367;28;58848;-69
2024/02/09 12:07:21;;;;;;;1.20;1.03;;;;;;;;;;5026198;28;58530;-70
2024/02/09 12:09:49;;;;;;;1.70;1.13;;;;;;;;;;5025936;28;59642;-69
2024/02/09 12:12:14;;;;;;;1.53;0.90;;;;;;;;;;5026979;28;58400;-69
2024/02/09 12:14:39;;;;;;;1.10;0.83;;;;;;;;;;5026217;28;59249;-69
2024/02/09 12:17:05;;;;;;;0.80;0.60;;;;;;;;;;5024774;28;58925;-68
2024/02/09 12:19:30;;;;;;;1.80;0.65;;;;;;;;;;5026881;28;58447;-70
2024/02/09 12:21:59;;;;;;;0.70;0.70;;;;;;;;;;5026124;28;59013;-69
2024/02/09 12:24:25;;;;;;;0.73;0.73;;;;;;;;;;5025565;28;59229;-69
2024/02/09 12:26:50;;;;;;;1.50;0.55;;;;;;;;;;5027126;28;58397;-69
2024/02/09 12:29:16;;;;;;;1.02;0.90;;;;;;;;;;5026601;28;60071;-69
2024/02/09 12:31:43;;;;;;;1.30;0.60;;;;;;;;;;5025561;28;58885;-69
2024/02/09 12:34:09;;;;;;;0.82;0.77;;;;;;;;;;5024266;28;59326;-69
2024/02/09 12:36:36;;;;;;;0.88;0.63;;;;;;;;;;5026749;28;59717;-69
2024/02/09 12:39:06;;;;;;;1.05;0.75;;;;;;;;;;5025987;28;58439;-69
2024/02/09 12:41:32;;;;;;;0.93;0.57;;;;;;;;;;5026160;28;59338;-69
2024/02/09 12:43:59;;;;;;;0.83;0.50;;;;;;;;;;5025793;28;59888;-69
2024/02/09 12:46:24;;;;;;;1.23;0.60;;;;;;;;;;5025638;28;58373;-69
2024/02/09 12:48:50;;;;;;;0.93;0.60;;;;;;;;;;5025436;28;59464;-69
2024/02/09 12:51:16;;;;;;;1.33;0.88;;;;;;;;;;5025695;28;59032;-69
2024/02/09 12:53:41;;;;;;;0.50;0.50;;;;;;;;;;5025765;28;58407;-70
2024/02/09 12:56:06;;;;;;;1.50;0.70;;;;;;;;;;5027395;28;58519;-69
2024/02/09 12:58:32;;;;;;;0.60;0.60;;;;;;;;;;5026939;28;58360;-69
2024/02/09 13:00:57;;;;;;;2.50;1.00;;;;;;;;;;5025902;28;59692;-69
2024/02/09 13:03:22;;;;;;;0.70;0.45;;;;;;;;;;5023288;28;58906;-69
2024/02/09 13:05:48;;;;;;;0.75;0.60;;;;;;;;;;5025321;28;58412;-69
2024/02/09 13:08:13;;;;;;;0.55;0.50;;;;;;;;;;5026604;28;59053;-67
2024/02/09 13:10:38;;;;;;;2.33;0.93;;;;;;;;;;5027012;28;58466;-69
2024/02/09 13:13:07;;;;;;;1.57;0.77;;;;;;;;;;5023942;28;58478;-68
2024/02/09 13:15:33;;;;;;;0.50;0.45;;;;;;;;;;5025355;28;58454;-69
2024/02/09 13:17:58;;;;;;;1.38;0.52;;;;;;;;;;5025166;28;58539;-69
2024/02/09 13:20:23;;;;;;;1.27;1.15;;;;;;;;;;5005621;28;61282;-69
2024/02/09 13:22:48;;;;;;;1.13;0.47;;;;;;;;;;5024040;28;58683;-68
2024/02/09 13:25:15;;;;;;;0.60;0.60;;;;;;;;;;5023886;28;58458;-69
2024/02/09 13:27:42;;;;;;;0.82;0.45;;;;;;;;;;5024067;28;59297;-69
2024/02/09 13:30:07;;;;;;;0.70;0.68;;;;;;;;;;5022564;28;58937;-69
2024/02/09 13:32:34;;;;;;;0.80;0.70;;;;;;;;;;5023584;28;58544;-68
2024/02/09 13:34:59;;;;;;;0.80;0.80;;;;;;;;;;5021507;28;59490;-69
2024/02/09 13:37:24;;;;;;;0.60;0.60;;;;;;;;;;5026378;28;58422;-69
2024/02/09 13:39:52;;;;;;;0.82;0.80;;;;;;;;;;5022288;28;58495;-68
2024/02/09 13:42:17;;;;;;;0.90;0.82;;;;;;;;;;5021727;28;59084;-69
2024/02/09 13:44:43;;;;;;;0.63;0.57;;;;;;;;;;5025050;28;58471;-69
2024/02/09 13:47:08;;;;;;;0.98;0.60;;;;;;;;;;5024739;28;59228;-70
2024/02/09 13:49:34;;;;;;;0.63;0.60;;;;;;;;;;5024367;28;58575;-71
2024/02/09 13:52:01;;;;;;;2.53;1.08;;;;;;;;;;5024162;28;58495;-70
2024/02/09 13:54:26;;;;;;;1.10;1.00;;;;;;;;;;5024339;28;59305;-71
2024/02/09 13:56:51;;;;;;;2.23;0.70;;;;;;;;;;5022204;28;58941;-70
2024/02/09 13:59:16;;;;;;;1.08;0.80;;;;;;;;;;5024881;28;58400;-70
2024/02/09 14:01:41;;;;;;;0.93;0.53;;;;;;;;;;5022800;28;59027;-71
2024/02/09 14:04:07;;;;;;;0.47;0.45;;;;;;;;;;5023311;28;58524;-70
2024/02/09 14:06:33;;;;;;;0.98;0.88;;;;;;;;;;5023085;28;58680;-70
2024/02/09 14:09:00;;;;;;;0.65;0.65;;;;;;;;;;5024378;28;58259;-71
2024/02/09 14:11:26;;;;;;;0.68;0.47;;;;;;;;;;5024922;28;58376;-71
2024/02/09 14:13:52;;;;;;;0.98;0.80;;;;;;;;;;5024429;28;60323;-71
2024/02/09 14:16:17;;;;;;;0.82;0.70;;;;;;;;;;5022361;28;58693;-71
2024/02/09 14:18:44;;;;;;;0.57;0.40;;;;;;;;;;5025856;28;58348;-71
2024/02/09 14:21:09;;;;;;;0.68;0.55;;;;;;;;;;5022830;28;59912;-70
2024/02/09 14:23:35;;;;;;;0.75;0.60;;;;;;;;;;5024966;28;58384;-71
2024/02/09 14:26:00;;;;;;;0.60;0.43;;;;;;;;;;5020278;28;59491;-70
2024/02/09 14:28:27;;;;;;;1.33;1.10;;;;;;;;;;5024043;28;59570;-71
2024/02/09 14:30:52;;;;;;;0.65;0.50;;;;;;;;;;5021320;28;58368;-70
2024/02/09 14:33:19;;;;;;;1.33;0.70;;;;;;;;;;5022067;28;59474;-72
2024/02/09 14:35:44;;;;;;;1.13;0.43;;;;;;;;;;5021489;28;59151;-71
2024/02/09 14:38:09;;;;;;;1.47;0.73;;;;;;;;;;5023131;28;58479;-70
2024/02/09 14:40:35;;;;;;;2.00;0.67;;;;;;;;;;5024033;28;59475;-71
2024/02/09 14:43:01;;;;;;;0.82;0.82;;;;;;;;;;5020980;28;58554;-71
2024/02/09 14:45:26;;;;;;;1.67;0.60;;;;;;;;;;5022938;28;59444;-70
2024/02/09 14:47:51;;;;;;;0.98;0.52;;;;;;;;;;5020856;28;58521;-71
2024/02/09 14:50:18;;;;;;;0.70;0.70;;;;;;;;;;5024190;28;58512;-71
2024/02/09 14:52:44;;;;;;;0.60;0.60;;;;;;;;;;5023138;28;59246;-71
2024/02/09 14:55:09;;;;;;;2.25;0.73;;;;;;;;;;5022266;28;59321;-70
2024/02/09 14:57:34;;;;;;;3.03;1.38;;;;;;;;;;5021258;28;58382;-69
2024/02/09 15:00:00;;;;;;;1.67;0.90;;;;;;;;;;5022234;28;58922;-68
2024/02/09 15:02:25;;;;;;;2.67;1.30;;;;;;;;;;5023411;28;58968;-69
2024/02/09 15:04:50;;;;;;;1.17;0.90;;;;;;;;;;5024743;28;59247;-69
2024/02/09 15:07:19;;;;;;;2.73;1.33;;;;;;;;;;5025603;28;58937;-69
2024/02/09 15:09:44;;;;;;;3.10;0.93;;;;;;;;;;5024128;28;58377;-68
2024/02/09 15:12:12;;;;;;;1.30;0.82;;;;;;;;;;5026217;28;59304;-68
2024/02/09 15:14:37;;;;;;;1.67;1.00;;;;;;;;;;5025898;28;59017;-69
2024/02/09 15:17:02;;;;;;;1.75;1.10;;;;;;;;;;5026566;28;58422;-67
2024/02/09 15:19:29;;;;;;;3.63;1.00;;;;;;;;;;5028688;28;59663;-69
2024/02/09 15:21:54;;;;;;;0.77;0.73;;;;;;;;;;5027474;28;59179;-69
2024/02/09 15:24:21;;;;;;;2.73;0.87;;;;;;;;;;5027549;28;58420;-68
2024/02/09 15:26:46;;;;;;;2.30;1.08;;;;;;;;;;5027663;28;58465;-69
2024/02/09 15:29:12;;;;;;;1.47;1.00;;;;;;;;;;5026706;28;58459;-68
2024/02/09 15:31:37;;;;;;;1.20;1.10;;;;;;;;;;5011018;28;61217;-69
2024/02/09 15:34:02;;;;;;;3.25;0.60;;;;;;;;;;5025272;28;59248;-69
2024/02/09 15:36:30;;;;;;;1.80;1.45;;;;;;;;;;5027612;28;58416;-69
2024/02/09 15:38:55;;;;;;;2.97;1.00;;;;;;;;;;5026566;28;58961;-69
2024/02/09 15:41:20;;;;;;;2.53;1.67;;;;;;;;;;5026429;28;58836;-69
2024/02/09 15:43:47;;;;;;;1.53;0.90;;;;;;;;;;5027361;28;58436;-69
2024/02/09 15:46:15;;;;;;;1.20;0.85;;;;;;;;;;5024912;28;59430;-69
2024/02/09 15:48:41;;;;;;;1.83;1.48;;;;;;;;;;5024289;28;58456;-69
2024/02/09 15:51:07;;;;;;;1.98;0.98;;;;;;;;;;5024635;28;59334;-70
2024/02/09 15:53:32;;;;;;;1.90;1.37;;;;;;;;;;5022911;28;59147;-69
2024/02/09 15:55:58;;;;;;;3.83;1.00;;;;;;;;;;5026222;28;58358;-69
2024/02/09 15:58:24;;;;;;;1.90;1.30;;;;;;;;;;5027352;28;59696;-69
2024/02/09 16:00:49;;;;;;;2.88;1.65;;;;;;;;;;5025885;28;59050;-68
2024/02/09 16:03:18;;;;;;;1.27;0.90;;;;;;;;;;5026427;28;58498;-69
2024/02/09 16:05:43;;;;;;;2.30;0.90;;;;;;;;;;5026449;28;59732;-69
2024/02/09 16:08:09;;;;;;;1.15;0.90;;;;;;;;;;5024313;28;58328;-69
2024/02/09 16:10:34;;;;;;;2.25;1.13;;;;;;;;;;5008038;28;58896;-68
2024/02/09 16:13:00;;;;;;;0.80;0.70;;;;;;;;;;5023734;28;58384;-69
2024/02/09 16:15:26;;;;;;;2.05;1.00;;;;;;;;;;5023708;28;58426;-69
2024/02/09 16:17:51;;;;;;;2.17;1.08;;;;;;;;;;5026057;28;59485;-72
2024/02/09 16:20:17;;;;;;;2.47;1.33;;;;;;;;;;5023504;28;58985;-73
2024/02/09 16:22:46;;;;;;;1.10;0.98;;;;;;;;;;5026599;28;58543;-73
2024/02/09 16:25:12;;;;;;;2.67;1.42;;;;;;;;;;5026720;28;58718;-72